Burbank, Ohio
Current Conditions -  °F | °C
As of 6:56 AM on Monday 26 Jan 2015 (Local Time) from KBJJ Reporting Station
Light Snow Light Snow  
Wind Chill:   Ceiling: 3800
Heat Index: 18°   Visibility: 2.5mi
Dew Point: 14°   Wind: 13mph
Humidity: 84%   Direction: 360°N
Pressure: 29.77"   Gusts: NA
Location:  40.99°N, 81.99°W
Report Text: KBJJ 261156Z AUTO 36011KT 2 1/2SM -SN BR OVC038 M08/M10 A2977 RMK AO2 SLP098 P0000 60000 70002 T10781100 11072 21083 53000 TSNO
Loading
Personal Weather Stations






























Interactive Weather Map New forecast layout! Learn more

10-Day Weather Forecast

Advertisements
Track Severe Weather on mobile